createdAt,value
2022-08-22T00:01:12.021Z,95048.22
2022-08-22T00:03:04.028Z,95019.00
2022-08-22T00:03:55.150Z,95042.38
2022-08-22T00:06:32.965Z,95045.53
2022-08-22T00:09:12.582Z,95056.13
2022-08-22T00:11:48.592Z,95056.63
2022-08-22T00:14:23.513Z,95055.56
2022-08-22T00:16:59.588Z,95061.88
2022-08-22T00:19:37.213Z,95057.13
2022-08-22T00:22:16.245Z,95056.00
2022-08-22T00:24:54.133Z,95057.00
2022-08-22T00:27:26.869Z,95045.88
2022-08-22T00:30:01.714Z,95043.72
2022-08-22T00:32:36.088Z,95035.78
2022-08-22T00:35:13.671Z,95031.84
2022-08-22T00:37:46.095Z,95028.41
2022-08-22T00:40:27.990Z,95027.34
2022-08-22T00:43:18.468Z,95024.66
2022-08-22T00:46:03.574Z,95030.75
2022-08-22T00:49:12.325Z,95034.19
2022-08-22T00:52:04.579Z,95025.34
2022-08-22T00:54:55.680Z,95025.97
2022-08-22T00:57:42.632Z,95029.34
2022-08-22T01:00:16.419Z,95028.28
2022-08-22T01:03:28.007Z,95020.38
2022-08-22T01:06:14.532Z,95020.84
2022-08-22T01:08:59.597Z,95021.28
2022-08-22T01:12:05.499Z,95021.50
2022-08-22T01:14:41.327Z,95021.28
2022-08-22T01:17:37.893Z,95008.47
2022-08-22T01:21:00.742Z,95014.31
2022-08-22T01:24:07.281Z,95011.25
2022-08-22T01:27:31.261Z,95006.50
2022-08-22T01:30:18.380Z,95003.47
2022-08-22T01:33:25.556Z,94994.94
2022-08-22T01:36:17.516Z,94988.56
2022-08-22T01:39:00.989Z,94994.66
2022-08-22T01:41:49.857Z,94994.44
2022-08-22T01:44:45.607Z,95000.31
2022-08-22T01:47:19.103Z,94994.00
2022-08-22T01:49:53.690Z,94991.66
2022-08-22T01:52:38.643Z,94985.63
2022-08-22T01:55:13.242Z,94992.53
2022-08-22T01:57:53.300Z,94986.22
2022-08-22T02:00:35.298Z,94995.25
2022-08-22T02:03:20.048Z,94993.09
2022-08-22T02:05:53.580Z,94989.38
2022-08-22T02:08:31.625Z,94993.09
2022-08-22T02:11:06.102Z,94991.03
2022-08-22T02:13:46.146Z,94994.81
2022-08-22T02:16:21.227Z,94991.66
2022-08-22T02:19:08.314Z,94995.38
2022-08-22T02:21:47.089Z,94988.50
2022-08-22T02:24:25.723Z,94990.06
2022-08-22T02:27:05.842Z,94994.22
2022-08-22T02:29:39.824Z,94993.31
2022-08-22T02:32:16.599Z,94991.75
2022-08-22T02:34:50.818Z,94982.81
2022-08-22T02:37:24.102Z,94979.66
2022-08-22T02:40:04.240Z,94977.28
2022-08-22T02:42:42.195Z,94975.94
2022-08-22T02:45:23.975Z,94971.22
2022-08-22T02:47:59.906Z,94971.75
2022-08-22T02:50:38.346Z,94967.00
2022-08-22T02:53:12.646Z,94970.28
2022-08-22T02:55:49.244Z,94958.69
2022-08-22T02:58:27.316Z,94964.75
2022-08-22T03:01:16.375Z,94967.13
2022-08-22T03:03:47.809Z,94962.63
2022-08-22T03:06:34.555Z,94963.97
2022-08-22T03:09:18.949Z,94969.25
2022-08-22T03:11:53.780Z,94963.97
2022-08-22T03:14:27.702Z,94958.44
2022-08-22T03:17:02.920Z,94943.91
2022-08-22T03:19:50.299Z,94946.03
2022-08-22T03:22:23.877Z,94941.31
2022-08-22T03:24:56.976Z,94932.84
2022-08-22T03:27:34.573Z,94931.84
2022-08-22T03:30:06.990Z,94933.97
2022-08-22T03:32:50.982Z,94930.25
2022-08-22T03:35:36.288Z,94938.25
2022-08-22T03:38:18.835Z,94934.06
2022-08-22T03:41:23.730Z,94936.13
2022-08-22T03:44:11.955Z,94940.47
2022-08-22T03:46:59.676Z,94947.09
2022-08-22T03:49:59.464Z,94947.88
2022-08-22T03:53:15.345Z,94949.47
2022-08-22T03:56:16.821Z,94944.72
2022-08-22T03:59:13.007Z,94953.75
2022-08-22T04:02:41.893Z,94943.72
2022-08-22T04:05:53.407Z,94943.22
2022-08-22T04:08:56.737Z,94943.72
2022-08-22T04:11:52.934Z,94938.44
2022-08-22T04:14:58.120Z,94943.66
2022-08-22T04:18:02.038Z,94932.34
2022-08-22T04:21:00.722Z,94950.69
2022-08-22T04:24:01.660Z,94948.56
2022-08-22T04:26:38.475Z,94951.72
2022-08-22T04:29:15.020Z,94958.63
2022-08-22T04:31:47.279Z,94967.34
2022-08-22T04:34:23.586Z,94972.34
2022-08-22T04:36:57.941Z,94961.78
2022-08-22T04:39:36.692Z,94962.34
2022-08-22T04:42:31.756Z,94967.63
2022-08-22T04:45:07.162Z,94964.47
2022-08-22T04:47:41.665Z,94977.97
2022-08-22T04:50:19.316Z,94975.38
2022-08-22T04:53:12.374Z,94979.88
2022-08-22T04:55:50.978Z,94983.56
2022-08-22T04:58:33.808Z,94988.31
2022-08-22T05:01:14.727Z,94986.72
2022-08-22T05:03:51.109Z,94992.56
2022-08-22T05:06:24.570Z,94997.84
2022-08-22T05:08:53.653Z,94994.16
2022-08-22T05:11:25.090Z,94998.88
2022-08-22T05:13:58.504Z,95005.78
2022-08-22T05:16:30.055Z,95011.06
2022-08-22T05:19:03.949Z,95009.72
2022-08-22T05:21:36.967Z,95004.13
2022-08-22T05:24:09.595Z,95002.00
2022-08-22T05:26:42.302Z,94997.22
2022-08-22T05:29:14.139Z,94998.81
2022-08-22T05:31:48.708Z,94999.88
2022-08-22T05:34:21.450Z,95001.22
2022-08-22T05:36:56.788Z,95010.50
2022-08-22T05:39:28.228Z,95006.06
2022-08-22T05:41:59.211Z,95008.63
2022-08-22T05:44:31.495Z,95019.25
2022-08-22T05:47:03.605Z,95022.97
2022-08-22T05:49:38.934Z,95016.38
2022-08-22T05:52:16.423Z,95011.06
2022-08-22T05:54:58.496Z,95012.88
2022-08-22T05:57:29.817Z,95016.50
2022-08-22T06:00:04.329Z,95014.88
2022-08-22T06:02:52.673Z,95014.78
2022-08-22T06:05:27.568Z,95011.03
2022-08-22T06:08:03.418Z,95006.22
2022-08-22T06:10:39.161Z,95006.72
2022-08-22T06:13:11.866Z,95017.81
2022-08-22T06:15:47.277Z,95018.84
2022-08-22T06:18:22.077Z,95028.34
2022-08-22T06:20:54.579Z,95024.63
2022-08-22T06:23:28.839Z,95025.72
2022-08-22T06:26:00.598Z,95026.75
2022-08-22T06:28:33.413Z,95034.19
2022-08-22T06:31:04.286Z,95026.75
2022-08-22T06:33:38.088Z,95037.88
2022-08-22T06:36:29.318Z,95038.66
2022-08-22T06:39:16.898Z,95043.66
2022-08-22T06:41:51.966Z,95047.28
2022-08-22T06:44:23.588Z,95054.66
2022-08-22T06:46:56.620Z,95051.19
2022-08-22T06:49:27.453Z,95049.75
2022-08-22T06:52:01.135Z,95046.41
2022-08-22T06:54:36.262Z,95043.66
2022-08-22T06:57:06.613Z,95044.91
2022-08-22T06:59:39.351Z,95046.75
2022-08-22T07:02:17.612Z,95047.75
2022-08-22T07:04:49.836Z,95051.94
2022-08-22T07:07:20.131Z,95050.34
2022-08-22T07:09:55.479Z,95044.41
2022-08-22T07:12:29.077Z,95054.31
2022-08-22T07:15:01.742Z,95054.66
2022-08-22T07:17:32.479Z,95047.41
2022-08-22T07:20:06.976Z,95048.00
2022-08-22T07:22:38.094Z,95037.63
2022-08-22T07:25:12.612Z,95049.75
2022-08-22T07:28:00.625Z,95047.69
2022-08-22T07:30:46.267Z,95039.50
2022-08-22T07:33:28.893Z,95040.00
2022-08-22T07:36:01.667Z,95035.19
2022-08-22T07:38:42.595Z,95043.22
2022-08-22T07:41:16.473Z,95034.00
2022-08-22T07:43:49.476Z,95047.97
2022-08-22T07:46:27.050Z,95037.56
2022-08-22T07:49:09.082Z,95041.53
2022-08-22T07:51:44.069Z,95054.91
2022-08-22T07:54:15.653Z,95050.03
2022-08-22T07:56:53.931Z,95045.03
2022-08-22T07:59:23.116Z,95036.63
2022-08-22T08:01:54.913Z,95039.00
2022-08-22T08:04:29.270Z,95033.06
2022-08-22T08:07:00.623Z,95027.53
2022-08-22T08:09:33.018Z,95031.28
2022-08-22T08:12:05.388Z,95023.66
2022-08-22T08:14:34.376Z,95029.31
2022-08-22T08:17:06.440Z,95033.84
2022-08-22T08:19:36.849Z,95026.94
2022-08-22T08:22:05.981Z,95024.22
2022-08-22T08:24:40.490Z,95028.28
2022-08-22T08:27:33.823Z,95024.69
2022-08-22T08:30:07.022Z,95029.84
2022-08-22T08:32:39.094Z,95030.72
2022-08-22T08:35:13.152Z,95036.91
2022-08-22T08:37:46.681Z,95036.34
2022-08-22T08:40:29.189Z,95027.53
2022-08-22T08:43:31.462Z,95032.63
2022-08-22T08:46:28.061Z,95022.75
2022-08-22T08:49:15.451Z,95026.63
2022-08-22T08:52:02.206Z,95031.78
2022-08-22T08:54:55.050Z,95025.16
2022-08-22T08:57:38.474Z,95032.47
2022-08-22T09:00:13.306Z,95023.81
2022-08-22T09:02:53.745Z,95013.00
2022-08-22T09:05:56.694Z,95018.31
2022-08-22T09:08:50.723Z,95019.09
2022-08-22T09:11:55.571Z,95009.44
2022-08-22T09:14:44.363Z,95013.00
2022-08-22T09:17:57.807Z,95007.31
2022-08-22T09:20:52.376Z,95002.41
2022-08-22T09:23:57.255Z,94998.91
2022-08-22T09:26:36.899Z,94995.19
2022-08-22T09:29:28.940Z,94990.81
2022-08-22T09:32:13.039Z,94992.00
2022-08-22T09:34:58.902Z,94999.06
2022-08-22T09:37:38.773Z,94991.00
2022-08-22T09:40:22.238Z,94982.00
2022-08-22T09:43:02.501Z,94979.94
2022-08-22T09:45:51.713Z,94983.44
2022-08-22T09:48:42.980Z,94974.38
2022-08-22T09:51:31.713Z,94978.03
2022-08-22T09:54:18.847Z,94971.25
2022-08-22T09:56:58.590Z,94970.28
2022-08-22T09:59:42.811Z,94971.41
2022-08-22T10:02:27.645Z,94964.69
2022-08-22T10:05:08.902Z,94960.47
2022-08-22T10:07:55.597Z,94967.69
2022-08-22T10:10:35.225Z,94958.19
2022-08-22T10:13:14.828Z,94966.81
2022-08-22T10:15:48.173Z,94966.81
2022-08-22T10:18:30.484Z,94962.28
2022-08-22T10:21:10.323Z,94974.72
2022-08-22T10:23:45.954Z,94966.75
2022-08-22T10:26:26.922Z,94959.06
2022-08-22T10:28:58.008Z,94963.78
2022-08-22T10:31:45.107Z,94962.53
2022-08-22T10:34:32.091Z,94952.78
2022-08-22T10:37:23.595Z,94945.25
2022-08-22T10:40:00.429Z,94946.19
2022-08-22T10:42:35.419Z,94953.88
2022-08-22T10:45:23.558Z,94961.09
2022-08-22T10:48:28.592Z,94958.13
2022-08-22T10:51:15.096Z,94953.09
2022-08-22T10:54:09.021Z,94944.31
2022-08-22T10:56:44.918Z,94948.06
2022-08-22T10:59:27.232Z,94947.47
2022-08-22T11:02:08.942Z,94944.63
2022-08-22T11:04:54.210Z,94944.91
2022-08-22T11:07:48.692Z,94948.06
2022-08-22T11:10:27.966Z,94945.75
2022-08-22T11:13:13.743Z,94951.09
2022-08-22T11:15:57.112Z,94944.47
2022-08-22T11:18:37.487Z,94941.44
2022-08-22T11:21:10.974Z,94941.13
2022-08-22T11:23:46.187Z,94943.81
2022-08-22T11:26:41.371Z,94947.59
2022-08-22T11:29:34.705Z,94944.00
2022-08-22T11:32:11.053Z,94940.19
2022-08-22T11:34:52.226Z,94953.22
2022-08-22T11:37:42.764Z,94947.38
2022-08-22T11:40:24.223Z,94942.47
2022-08-22T11:43:03.205Z,94935.72
2022-08-22T11:45:40.911Z,94946.97
2022-08-22T11:48:18.780Z,94942.28
2022-08-22T11:50:51.566Z,94938.50
2022-08-22T11:53:27.476Z,94937.56
2022-08-22T11:56:07.163Z,94918.66
2022-08-22T11:58:50.147Z,94933.63
2022-08-22T12:01:24.656Z,94931.03
2022-08-22T12:04:03.327Z,94926.66
2022-08-22T12:06:51.458Z,94923.53
2022-08-22T12:09:31.457Z,94917.06
2022-08-22T12:12:17.161Z,94912.28
2022-08-22T12:14:52.722Z,94915.41
2022-08-22T12:18:01.873Z,94913.66
2022-08-22T12:21:13.863Z,94910.47
2022-08-22T12:24:18.911Z,94909.97
2022-08-22T12:27:02.893Z,94900.16
2022-08-22T12:29:45.295Z,94901.81
2022-08-22T12:32:49.408Z,94906.31
2022-08-22T12:35:39.144Z,94923.00
2022-08-22T12:38:29.086Z,94916.03
2022-08-22T12:41:28.313Z,94919.34
2022-08-22T12:44:24.378Z,94906.97
2022-08-22T12:47:09.241Z,94910.88
2022-08-22T12:49:49.801Z,94897.28
2022-08-22T12:52:34.581Z,94900.78
2022-08-22T12:55:24.991Z,94903.88
2022-08-22T12:58:03.665Z,94902.03
2022-08-22T13:00:35.680Z,94904.38
2022-08-22T13:03:09.550Z,94896.06
2022-08-22T13:05:40.888Z,94894.13
2022-08-22T13:08:14.046Z,94890.75
2022-08-22T13:10:50.951Z,94901.72
2022-08-22T13:13:37.259Z,94894.66
2022-08-22T13:16:11.558Z,94895.75
2022-08-22T13:18:53.570Z,94883.94
2022-08-22T13:21:26.424Z,94893.31
2022-08-22T13:24:06.586Z,94878.97
2022-08-22T13:26:49.174Z,94882.16
2022-08-22T13:29:27.016Z,94880.63
2022-08-22T13:32:01.636Z,94882.00
2022-08-22T13:34:45.380Z,94877.28
2022-08-22T13:37:17.957Z,94869.09
2022-08-22T13:39:59.754Z,94874.25
2022-08-22T13:42:33.602Z,94870.59
2022-08-22T13:45:06.213Z,94866.56
2022-08-22T13:47:47.275Z,94863.44
2022-08-22T13:50:21.274Z,94857.81
2022-08-22T13:52:55.440Z,94858.78
2022-08-22T13:55:32.304Z,94863.06
2022-08-22T13:58:06.880Z,94868.53
2022-08-22T14:01:01.619Z,94865.31
2022-08-22T14:03:40.351Z,94854.25
2022-08-22T14:06:37.086Z,94851.53
2022-08-22T14:09:15.371Z,94856.44
2022-08-22T14:11:50.019Z,94862.00
2022-08-22T14:14:29.524Z,94869.19
2022-08-22T14:17:00.630Z,94868.16
2022-08-22T14:19:35.043Z,94870.09
2022-08-22T14:22:32.325Z,94865.81
2022-08-22T14:25:07.203Z,94864.72
2022-08-22T14:27:39.962Z,94860.47
2022-08-22T14:30:17.089Z,94870.28
2022-08-22T14:32:52.422Z,94861.69
2022-08-22T14:35:35.164Z,94859.88
2022-08-22T14:38:27.468Z,94858.66
2022-08-22T14:41:03.715Z,94858.06
2022-08-22T14:43:51.671Z,94857.88
2022-08-22T14:46:30.692Z,94848.97
2022-08-22T14:49:25.386Z,94863.75
2022-08-22T14:52:00.170Z,94858.56
2022-08-22T14:54:29.688Z,94845.56
2022-08-22T14:57:00.555Z,94850.56
2022-08-22T14:59:40.159Z,94853.38
2022-08-22T15:02:15.692Z,94835.69
2022-08-22T15:04:48.123Z,94855.44
2022-08-22T15:07:24.870Z,94844.69
2022-08-22T15:09:56.126Z,94848.88
2022-08-22T15:12:28.757Z,94850.84
2022-08-22T15:15:00.808Z,94844.47
2022-08-22T15:17:44.318Z,94833.19
2022-08-22T15:20:28.130Z,94848.22
2022-08-22T15:23:01.704Z,94846.56
2022-08-22T15:25:34.226Z,94850.38
2022-08-22T15:28:06.847Z,94838.03
2022-08-22T15:30:45.270Z,94832.50
2022-08-22T15:33:18.911Z,94846.56
2022-08-22T15:35:48.278Z,94840.56
2022-08-22T15:38:29.408Z,94825.56
2022-08-22T15:41:17.998Z,94836.50
2022-08-22T15:43:50.019Z,94824.84
2022-08-22T15:46:43.594Z,94836.28
2022-08-22T15:49:27.673Z,94827.63
2022-08-22T15:52:11.127Z,94831.97
2022-08-22T15:55:17.283Z,94829.53
2022-08-22T15:58:05.636Z,94831.97
2022-08-22T16:00:41.929Z,94830.94
2022-08-22T16:03:16.132Z,94830.88
2022-08-22T16:05:55.666Z,94831.44
2022-08-22T16:08:32.749Z,94834.16
2022-08-22T16:11:22.890Z,94833.72
2022-08-22T16:14:22.519Z,94837.03
2022-08-22T16:17:03.324Z,94843.19
2022-08-22T16:19:33.705Z,94831.44
2022-08-22T16:22:47.329Z,94838.22
2022-08-22T16:25:17.251Z,94832.53
2022-08-22T16:27:57.330Z,94828.34
2022-08-22T16:30:35.644Z,94825.75
2022-08-22T16:33:04.590Z,94817.97
2022-08-22T16:36:25.198Z,94825.31
2022-08-22T16:38:57.987Z,94827.38
2022-08-22T16:41:32.455Z,94829.81
2022-08-22T16:44:24.937Z,94832.25
2022-08-22T16:46:54.724Z,94828.34
2022-08-22T16:49:29.742Z,94828.81
2022-08-22T16:52:35.360Z,94833.25
2022-08-22T16:55:08.076Z,94830.84
2022-08-22T16:58:04.941Z,94831.56
2022-08-22T17:00:42.917Z,94836.38
2022-08-22T17:03:19.190Z,94830.97
2022-08-22T17:06:00.389Z,94829.66
2022-08-22T17:08:51.999Z,94835.81
2022-08-22T17:11:31.711Z,94846.53
2022-08-22T17:14:16.098Z,94846.22
2022-08-22T17:16:57.024Z,94844.88
2022-08-22T17:19:44.616Z,94851.41
2022-08-22T17:22:29.199Z,94848.84
2022-08-22T17:25:14.947Z,94848.88
2022-08-22T17:27:51.527Z,94853.69
2022-08-22T17:30:24.845Z,94846.16
2022-08-22T17:33:07.613Z,94845.03
2022-08-22T17:35:46.461Z,94849.25
2022-08-22T17:38:28.542Z,94854.53
2022-08-22T17:41:06.867Z,94862.09
2022-08-22T17:43:51.402Z,94864.00
2022-08-22T17:46:31.589Z,94866.56
2022-08-22T17:49:10.223Z,94866.97
2022-08-22T17:51:44.702Z,94870.31
2022-08-22T17:54:21.726Z,94861.81
2022-08-22T17:57:05.163Z,94865.47
2022-08-22T17:59:45.401Z,94864.78
2022-08-22T18:02:18.939Z,94866.78
2022-08-22T18:04:57.773Z,94874.13
2022-08-22T18:07:41.724Z,94872.28
2022-08-22T18:10:19.673Z,94870.09
2022-08-22T18:13:02.322Z,94869.06
2022-08-22T18:15:43.345Z,94873.41
2022-08-22T18:18:21.103Z,94867.84
2022-08-22T18:20:54.398Z,94875.38
2022-08-22T18:23:35.436Z,94873.44
2022-08-22T18:26:24.146Z,94872.09
2022-08-22T18:28:58.195Z,94880.34
2022-08-22T18:31:39.210Z,94881.34
2022-08-22T18:34:24.414Z,94890.97
2022-08-22T18:36:59.170Z,94888.97
2022-08-22T18:39:32.623Z,94886.09
2022-08-22T18:42:09.462Z,94888.81
2022-08-22T18:44:39.793Z,94888.56
2022-08-22T18:47:16.886Z,94893.44
2022-08-22T18:49:54.243Z,94899.63
2022-08-22T18:52:38.681Z,94901.28
2022-08-22T18:55:44.307Z,94915.38
2022-08-22T18:58:34.490Z,94917.09
2022-08-22T19:01:24.364Z,94912.88
2022-08-22T19:04:21.985Z,94913.25
2022-08-22T19:07:24.332Z,94915.97
2022-08-22T19:10:11.231Z,94916.47
2022-08-22T19:13:06.525Z,94924.16
2022-08-22T19:15:50.608Z,94929.66
2022-08-22T19:18:41.946Z,94923.56
2022-08-22T19:22:03.696Z,94935.16
2022-08-22T19:25:13.295Z,94938.97
2022-08-22T19:27:44.682Z,94936.78
2022-08-22T19:30:43.323Z,94944.31
2022-08-22T19:33:12.938Z,94942.56
2022-08-22T19:36:06.820Z,94947.63
2022-08-22T19:38:58.562Z,94951.69
2022-08-22T19:41:52.542Z,94942.59
2022-08-22T19:44:40.461Z,94945.88
2022-08-22T19:47:28.379Z,94942.13
2022-08-22T19:50:05.630Z,94946.50
2022-08-22T19:52:52.910Z,94941.59
2022-08-22T19:55:31.546Z,94946.16
2022-08-22T19:58:11.280Z,94954.69
2022-08-22T20:00:53.616Z,94944.59
2022-08-22T20:03:32.921Z,94951.50
2022-08-22T20:06:22.139Z,94944.75
2022-08-22T20:09:15.352Z,94951.66
2022-08-22T20:11:53.289Z,94947.44
2022-08-22T20:14:30.196Z,94949.94
2022-08-22T20:17:05.982Z,94949.59
2022-08-22T20:19:39.516Z,94947.72
2022-08-22T20:22:10.859Z,94955.84
2022-08-22T20:24:46.536Z,94948.16
2022-08-22T20:27:21.920Z,94958.03
2022-08-22T20:29:55.894Z,94958.50
2022-08-22T20:32:26.799Z,94949.91
2022-08-22T20:34:58.384Z,94950.50
2022-08-22T20:38:05.869Z,94955.53
2022-08-22T20:40:55.355Z,94958.34
2022-08-22T20:43:28.317Z,94949.88
2022-08-22T20:46:07.247Z,94959.13
2022-08-22T20:48:44.925Z,94952.94
2022-08-22T20:51:16.622Z,94955.75
2022-08-22T20:53:52.358Z,94952.94
2022-08-22T20:56:33.507Z,94948.56
2022-08-22T20:59:16.748Z,94947.63
2022-08-22T21:01:46.568Z,94947.63
2022-08-22T21:04:15.799Z,94947.63
2022-08-22T21:06:43.772Z,94946.84
2022-08-22T21:09:32.324Z,94948.84
2022-08-22T21:12:01.995Z,94951.06
2022-08-22T21:14:35.817Z,94938.47
2022-08-22T21:17:22.514Z,94953.66
2022-08-22T21:19:50.890Z,94948.97
2022-08-22T21:22:27.096Z,94949.41
2022-08-22T21:24:57.304Z,94947.84
2022-08-22T21:27:29.845Z,94945.66
2022-08-22T21:30:01.231Z,94947.84
2022-08-22T21:32:37.810Z,94947.84
2022-08-22T21:35:20.757Z,94944.66
2022-08-22T21:37:48.978Z,94956.53
2022-08-22T21:40:19.657Z,94951.19
2022-08-22T21:43:00.794Z,94957.66
2022-08-22T21:45:35.397Z,94958.28
2022-08-22T21:48:03.566Z,94955.50
2022-08-22T21:50:38.245Z,94956.38
2022-08-22T21:53:10.349Z,94951.38
2022-08-22T21:55:42.998Z,94948.25
2022-08-22T21:58:35.947Z,94949.81
2022-08-22T22:01:28.491Z,94951.28
2022-08-22T22:03:57.607Z,94959.41
2022-08-22T22:06:26.028Z,94960.78
2022-08-22T22:08:53.991Z,94964.38
2022-08-22T22:11:22.026Z,94953.72
2022-08-22T22:13:50.074Z,94961.19
2022-08-22T22:16:25.841Z,94962.78
2022-08-22T22:18:54.088Z,94969.88
2022-08-22T22:21:22.149Z,94965.38
2022-08-22T22:23:50.695Z,94975.13
2022-08-22T22:26:18.733Z,94975.59
2022-08-22T22:28:50.213Z,94977.78
2022-08-22T22:31:19.775Z,94977.41
2022-08-22T22:33:47.789Z,94974.25
2022-08-22T22:36:19.524Z,94976.25
2022-08-22T22:38:47.920Z,94984.19
2022-08-22T22:41:15.856Z,94989.72
2022-08-22T22:43:43.812Z,94986.09
2022-08-22T22:46:11.789Z,94987.97
2022-08-22T22:48:41.136Z,94983.94
2022-08-22T22:51:10.727Z,94984.63
2022-08-22T22:53:43.121Z,94988.66
2022-08-22T22:56:14.550Z,94989.75
2022-08-22T22:58:44.290Z,94990.16
2022-08-22T23:01:15.237Z,95002.53
2022-08-22T23:03:45.669Z,94989.75
2022-08-22T23:06:14.666Z,95001.47
2022-08-22T23:08:42.710Z,95009.13
2022-08-22T23:11:12.056Z,95006.47
2022-08-22T23:13:42.896Z,95001.53
2022-08-22T23:16:13.946Z,95000.25
2022-08-22T23:18:42.402Z,94998.56
2022-08-22T23:21:14.059Z,95003.69
2022-08-22T23:23:42.776Z,95018.47
2022-08-22T23:26:10.986Z,95006.28
2022-08-22T23:28:39.572Z,95004.88
2022-08-22T23:31:12.564Z,95004.72
2022-08-22T23:33:40.748Z,95003.09
2022-08-22T23:36:15.472Z,95005.84
2022-08-22T23:38:43.940Z,95001.88
2022-08-22T23:41:13.586Z,95006.66
2022-08-22T23:43:43.813Z,95007.44
2022-08-22T23:46:12.141Z,95011.06
2022-08-22T23:48:40.169Z,95009.50
2022-08-22T23:51:10.216Z,95011.16
2022-08-22T23:53:39.702Z,95010.59
2022-08-22T23:56:19.672Z,95014.41
2022-08-22T23:58:48.928Z,95005.97
